Time;durP1;ratioP1;P1;durP2;ratioP2;P2;SDS_P1;SDS_P2;PMS_P1;PMS_P2;Temp;Humidity;BMP_temperature;BMP_pressure;BME280_temperature;BME280_humidity;BME280_pressure;Samples;Min_cycle;Max_cycle;Signal;HPM_P1;HPM_P2
2021/01/28 00:01:10;;;;;;;8.98;8.08;;;;;;;2.25;78.22;99795.74;1744966;82;21164;-44
2021/01/28 00:03:39;;;;;;;12.68;9.33;;;;;;;2.26;78.23;99791.05;1734212;82;21286;-49
2021/01/28 00:06:08;;;;;;;11.15;8.73;;;;;;;2.26;78.07;99780.78;1739889;82;21479;-44
2021/01/28 00:08:38;;;;;;;9.35;8.23;;;;;;;2.27;78.11;99783.75;1737850;82;21184;-44
2021/01/28 00:11:07;;;;;;;9.45;7.70;;;;;;;2.29;77.93;99803.85;1747215;82;21141;-43
2021/01/28 00:13:35;;;;;;;11.78;9.28;;;;;;;2.29;78.05;99803.85;1744648;82;21581;-44
2021/01/28 00:16:05;;;;;;;9.35;7.97;;;;;;;2.31;77.88;99823.53;1733559;82;21314;-43
2021/01/28 00:18:34;;;;;;;10.90;9.10;;;;;;;2.30;77.69;99836.38;1738487;82;21188;-43
2021/01/28 00:21:06;;;;;;;12.13;8.73;;;;;;;2.33;77.48;99844.05;1734381;82;21148;-42
2021/01/28 00:23:34;;;;;;;12.33;8.93;;;;;;;2.32;77.38;99856.48;1740328;82;21184;-44
2021/01/28 00:26:02;;;;;;;10.20;8.93;;;;;;;2.30;77.38;99855.63;1735605;82;21286;-43
2021/01/28 00:28:31;;;;;;;10.28;8.50;;;;;;;2.31;77.39;99866.30;1743349;82;21286;-44
2021/01/28 00:30:59;;;;;;;10.63;8.95;;;;;;;2.34;77.32;99879.14;1719011;82;21302;-51
2021/01/28 00:33:28;;;;;;;11.43;9.03;;;;;;;2.34;77.06;99866.31;1726740;82;21584;-48
2021/01/28 00:35:57;;;;;;;11.53;9.33;;;;;;;2.34;77.08;99872.73;1727198;82;21295;-43
2021/01/28 00:38:29;;;;;;;9.50;8.50;;;;;;;2.33;77.04;99857.75;1722076;82;21161;-43
2021/01/28 00:40:57;;;;;;;;;;;;;;;2.35;77.07;99855.17;1733854;82;21197;-43
2021/01/28 00:43:26;;;;;;;10.25;8.20;;;;;;;2.37;77.06;99841.93;1727047;82;20123;-44
2021/01/28 00:45:56;;;;;;;11.60;9.00;;;;;;;2.37;76.88;99861.19;1720917;82;21152;-43
2021/01/28 00:48:26;;;;;;;10.40;8.20;;;;;;;2.37;76.82;99825.24;1720863;82;21153;-44
2021/01/28 00:50:56;;;;;;;11.33;9.05;;;;;;;2.37;76.87;99822.67;1726619;82;21157;-43
2021/01/28 00:53:24;;;;;;;11.83;9.20;;;;;;;2.37;77.02;99825.24;1722887;82;21545;-44
2021/01/28 00:55:53;;;;;;;12.00;9.20;;;;;;;2.38;76.85;99826.52;1731106;82;21283;-43
2021/01/28 00:58:31;;;;;;;10.10;8.55;;;;;;;2.45;76.92;99824.78;1814466;79;23055;-43
2021/01/28 01:01:01;;;;;;;11.65;9.38;;;;;;;2.44;76.79;99821.78;1790206;78;21156;-43
2021/01/28 01:03:29;;;;;;;11.43;9.18;;;;;;;2.47;76.66;99841.03;1820910;79;21152;-44
2021/01/28 01:05:57;;;;;;;11.97;8.95;;;;;;;2.45;76.62;99841.02;1817386;79;21150;-42
2021/01/28 01:08:30;;;;;;;12.10;9.45;;;;;;;2.40;76.65;99827.78;1809145;79;21192;-42
2021/01/28 01:11:03;;;;;;;11.10;8.48;;;;;;;2.38;76.61;99820.09;1760349;81;21619;-43
2021/01/28 01:13:38;;;;;;;9.60;8.15;;;;;;;2.44;76.66;99812.79;1819858;77;23067;-47
2021/01/28 01:16:10;;;;;;;11.38;9.13;;;;;;;2.37;76.65;99786.73;1634324;86;21707;-43
2021/01/28 01:18:48;;;;;;;10.80;8.90;;;;;;;2.42;76.61;99764.45;1771510;79;23118;-43
2021/01/28 01:21:17;;;;;;;10.65;8.18;;;;;;;2.42;76.53;99776.00;1741992;82;21286;-43
2021/01/28 01:23:47;;;;;;;11.80;9.07;;;;;;;2.41;76.41;99775.59;1730546;82;21539;-43
2021/01/28 01:26:17;;;;;;;13.30;10.75;;;;;;;2.42;76.35;99765.73;1740560;82;21192;-44
2021/01/28 01:28:47;;;;;;;10.70;9.03;;;;;;;2.43;76.33;99753.33;1740537;82;21172;-43
2021/01/28 01:31:21;;;;;;;10.80;9.15;;;;;;;2.42;76.00;99774.72;1740375;82;21576;-43
2021/01/28 01:33:50;;;;;;;10.70;8.43;;;;;;;2.39;76.02;99788.87;1736009;82;21176;-43
2021/01/28 01:36:20;;;;;;;14.97;10.23;;;;;;;2.40;75.97;99813.66;1744138;82;21145;-42
2021/01/28 01:38:54;;;;;;;13.35;10.05;;;;;;;2.40;75.97;99813.66;1741546;82;21148;-43
2021/01/28 01:41:30;;;;;;;13.58;9.80;;;;;;;2.44;75.65;99823.06;1739478;82;21192;-48
2021/01/28 01:44:02;;;;;;;10.60;9.50;;;;;;;2.44;75.42;99851.30;1729243;82;21587;-43
2021/01/28 01:46:32;;;;;;;12.58;10.00;;;;;;;2.46;75.37;99863.70;1737404;82;21137;-43
2021/01/28 01:49:05;;;;;;;13.62;9.88;;;;;;;2.44;75.20;99861.57;1737339;82;21160;-44
2021/01/28 01:51:40;;;;;;;12.63;9.18;;;;;;;2.42;75.04;99851.73;1739621;82;21584;-44
2021/01/28 01:54:23;;;;;;;11.38;9.18;;;;;;;2.43;75.09;99858.59;1732625;82;21109;-42
2021/01/28 01:56:59;;;;;;;12.65;9.75;;;;;;;2.44;74.96;99857.72;1659357;84;21603;-43
2021/01/28 01:59:41;;;;;;;12.70;9.78;;;;;;;2.51;74.90;99853.00;1829194;77;23469;-43
2021/01/28 02:02:31;;;;;;;11.78;9.45;;;;;;;2.51;74.57;99849.15;1817410;78;21291;-45
2021/01/28 02:05:13;;;;;;;10.93;9.50;;;;;;;2.50;74.17;99876.95;1672052;84;21183;-44
2021/01/28 02:07:50;;;;;;;13.62;10.30;;;;;;;2.56;74.15;99866.66;1805236;79;23095;-44
2021/01/28 02:10:23;;;;;;;13.60;9.90;;;;;;;2.54;74.02;99872.23;1682686;84;21342;-44
2021/01/28 02:13:16;;;;;;;12.65;10.13;;;;;;;2.61;73.85;99879.06;1818219;78;23059;-43
2021/01/28 02:15:49;;;;;;;11.78;10.13;;;;;;;2.57;73.68;99877.38;1817364;77;21553;-45
2021/01/28 02:18:18;;;;;;;14.30;10.55;;;;;;;2.57;73.56;99888.92;1830685;78;21132;-43
2021/01/28 02:21:02;;;;;;;11.48;9.08;;;;;;;2.58;73.42;99889.33;1830345;78;21132;-44
2021/01/28 02:24:08;;;;;;;11.53;10.13;;;;;;;2.60;73.47;99902.20;1830648;78;21120;-43
2021/01/28 02:26:39;;;;;;;11.60;9.35;;;;;;;2.61;73.18;99922.73;1820829;78;21160;-50
2021/01/28 02:29:13;;;;;;;12.58;9.93;;;;;;;2.62;73.17;99906.89;1818816;78;21140;-45
2021/01/28 02:31:45;;;;;;;12.65;10.05;;;;;;;2.62;72.87;99917.17;1833095;78;21140;-44
2021/01/28 02:34:13;;;;;;;12.93;10.95;;;;;;;2.63;72.71;99922.29;1833328;78;21144;-45
2021/01/28 02:36:52;;;;;;;13.68;10.90;;;;;;;2.64;72.66;99921.42;1830106;77;21427;-43
2021/01/28 02:39:38;;;;;;;14.13;10.65;;;;;;;2.64;72.44;99922.70;1820191;78;21274;-45
2021/01/28 02:42:31;;;;;;;12.70;11.40;;;;;;;2.69;72.57;99923.55;1831039;76;28620;-43
2021/01/28 02:45:01;;;;;;;12.88;10.38;;;;;;;2.67;72.23;99915.00;1751066;82;21248;-49
2021/01/28 02:47:55;;;;;;;12.50;9.90;;;;;;;2.65;72.24;99935.98;1749570;82;21591;-44
2021/01/28 02:50:26;;;;;;;13.90;11.10;;;;;;;2.67;72.34;99943.25;1745283;82;21207;-45
2021/01/28 02:52:58;;;;;;;12.40;10.38;;;;;;;2.60;72.41;99935.13;1754831;82;21675;-45
2021/01/28 02:55:29;;;;;;;13.50;10.68;;;;;;;2.63;72.42;99919.72;1751985;82;21148;-48
2021/01/28 02:57:58;;;;;;;14.28;9.93;;;;;;;2.66;72.33;99928.69;1755025;82;21140;-46
2021/01/28 03:00:30;;;;;;;13.35;10.53;;;;;;;2.67;72.26;99927.84;1730186;82;21160;-51
2021/01/28 03:02:59;;;;;;;15.88;10.78;;;;;;;2.75;72.00;99940.23;1742903;82;21187;-46
2021/01/28 03:05:29;;;;;;;11.73;9.75;;;;;;;2.79;71.80;99934.64;1750638;82;21160;-45
2021/01/28 03:07:58;;;;;;;12.15;10.70;;;;;;;2.72;71.94;99942.80;1749116;82;21144;-49
2021/01/28 03:10:27;;;;;;;13.83;10.18;;;;;;;2.75;71.81;99941.52;1754231;82;21182;-50
2021/01/28 03:13:06;;;;;;;13.60;10.75;;;;;;;2.76;71.84;99935.50;1755555;82;21120;-47
2021/01/28 03:15:49;;;;;;;13.95;10.70;;;;;;;2.84;71.95;99947.91;1819650;77;23086;-47
2021/01/28 03:18:19;;;;;;;13.55;10.95;;;;;;;2.89;71.79;99962.87;1818212;78;21128;-52
2021/01/28 03:20:51;;;;;;;15.58;12.05;;;;;;;2.91;71.65;99953.44;1793350;78;21560;-48
2021/01/28 03:23:37;;;;;;;15.63;10.98;;;;;;;2.94;71.93;99950.88;1836282;77;23051;-46
2021/01/28 03:26:14;;;;;;;12.98;11.00;;;;;;;2.92;71.50;99951.73;1693026;84;21163;-52
2021/01/28 03:28:51;;;;;;;12.85;11.55;;;;;;;2.95;71.63;99952.56;1804538;77;28308;-51
2021/01/28 03:31:21;;;;;;;13.03;11.22;;;;;;;2.93;71.38;99942.72;1797323;78;21157;-46
2021/01/28 03:33:50;;;;;;;14.83;11.88;;;;;;;2.90;71.56;99946.61;1810557;78;21573;-46
2021/01/28 03:36:20;;;;;;;14.00;11.90;;;;;;;2.89;71.64;99942.31;1811314;78;21140;-47
2021/01/28 03:38:49;;;;;;;14.78;12.50;;;;;;;2.89;71.77;99943.59;1783813;78;21581;-48
2021/01/28 03:41:19;;;;;;;14.45;11.48;;;;;;;3.02;71.48;99947.84;1813274;78;21145;-45
2021/01/28 03:43:48;;;;;;;13.38;10.95;;;;;;;2.97;71.56;99958.55;1814473;78;21570;-45
2021/01/28 03:46:19;;;;;;;13.28;11.20;;;;;;;2.97;71.58;99954.70;1810139;78;21141;-45
2021/01/28 03:48:51;;;;;;;14.90;12.07;;;;;;;3.08;71.33;99963.66;1813809;78;21558;-49
2021/01/28 03:51:37;;;;;;;15.10;11.25;;;;;;;3.12;71.20;99966.21;1778348;79;22987;-45
2021/01/28 03:54:24;;;;;;;16.55;12.28;;;;;;;3.09;71.24;99971.34;1738533;82;21180;-45
2021/01/28 03:57:05;;;;;;;16.77;13.03;;;;;;;3.11;71.25;99977.80;1771564;79;23090;-46
2021/01/28 03:59:36;;;;;;;14.98;11.83;;;;;;;3.07;71.39;99972.24;1746669;82;21157;-48
2021/01/28 04:02:19;;;;;;;14.10;11.75;;;;;;;3.14;71.52;99997.04;1843424;77;23477;-46
2021/01/28 04:05:05;;;;;;;12.47;10.60;;;;;;;3.10;71.38;99992.35;1810095;78;21122;-47
2021/01/28 04:07:51;;;;;;;16.80;13.05;;;;;;;3.10;71.50;99992.35;1814142;78;21137;-47
2021/01/28 04:10:29;;;;;;;15.00;11.40;;;;;;;3.11;71.67;99990.19;1814082;78;21160;-46
2021/01/28 04:12:58;;;;;;;15.60;11.65;;;;;;;3.14;71.88;99990.19;1718832;82;21234;-51
2021/01/28 04:15:28;;;;;;;14.45;11.55;;;;;;;3.10;72.20;99996.20;1727054;82;21160;-50
2021/01/28 04:17:56;;;;;;;15.28;11.55;;;;;;;3.12;72.45;99994.48;1719331;82;21244;-45
2021/01/28 04:20:35;;;;;;;13.78;12.00;;;;;;;3.14;72.41;100009.47;1725180;81;21771;-45
2021/01/28 04:23:06;;;;;;;21.60;14.10;;;;;;;3.15;72.46;100004.73;1724431;82;21312;-44
2021/01/28 04:25:36;;;;;;;14.95;12.33;;;;;;;3.19;72.69;99998.72;1722262;82;21325;-45
2021/01/28 04:28:07;;;;;;;15.38;12.23;;;;;;;3.24;72.72;99994.43;1725703;82;21144;-44
2021/01/28 04:30:44;;;;;;;14.90;11.45;;;;;;;3.32;72.60;99989.24;1816377;79;23408;-47
2021/01/28 04:33:12;;;;;;;15.68;12.75;;;;;;;3.29;72.58;99991.42;1775744;80;21175;-45
2021/01/28 04:36:02;;;;;;;14.45;12.30;;;;;;;3.29;72.49;99991.42;1802950;79;23538;-46
2021/01/28 04:38:32;;;;;;;16.10;12.82;;;;;;;3.19;72.59;99995.33;1794518;78;21159;-46
2021/01/28 04:41:23;;;;;;;16.37;12.55;;;;;;;3.15;72.97;99997.03;1791307;78;21148;-46
2021/01/28 04:43:54;;;;;;;14.07;11.33;;;;;;;3.13;73.21;100010.31;1814128;78;21140;-45
2021/01/28 04:46:34;;;;;;;13.05;11.48;;;;;;;3.18;73.35;100009.02;1801516;78;21595;-46
2021/01/28 04:49:21;;;;;;;15.93;12.80;;;;;;;3.24;73.30;100020.14;1813398;79;23544;-45
2021/01/28 04:52:02;;;;;;;13.88;12.18;;;;;;;3.24;73.17;100020.14;1716419;83;21594;-45
2021/01/28 04:54:35;;;;;;;14.50;11.60;;;;;;;3.27;73.11;100021.42;1684616;84;21218;-45
2021/01/28 04:57:32;;;;;;;14.65;11.22;;;;;;;3.35;73.20;100020.10;1812123;78;23544;-46
2021/01/28 05:00:01;;;;;;;15.50;12.13;;;;;;;3.33;73.16;100018.39;1823625;78;21154;-46
2021/01/28 05:02:32;;;;;;;14.23;11.55;;;;;;;3.34;73.15;100027.83;1760572;78;21191;-50
2021/01/28 05:05:14;;;;;;;13.25;11.28;;;;;;;3.41;73.16;100024.35;1808562;79;23505;-47
2021/01/28 05:07:46;;;;;;;13.75;11.25;;;;;;;3.38;73.27;100037.23;1784727;80;21147;-46
2021/01/28 05:10:41;;;;;;;13.95;12.55;;;;;;;3.43;73.33;100035.48;1804836;76;38657;-46
2021/01/28 05:13:31;;;;;;;14.15;12.03;;;;;;;3.48;73.12;100036.33;1830998;77;21152;-50
2021/01/28 05:16:49;;;;;;;15.65;11.80;;;;;;;3.56;72.85;100035.86;1826124;77;21108;-49
2021/01/28 05:19:46;;;;;;;14.63;12.05;;;;;;;3.56;72.64;100042.30;1817264;77;21136;-46
2021/01/28 05:22:36;;;;;;;;;;;;;;;3.55;72.75;100048.28;1824880;77;21560;-51
2021/01/28 05:25:20;;;;;;;12.05;9.50;;;;;;;3.62;72.54;100045.70;1724827;82;20261;-54
2021/01/28 05:27:53;;;;;;;12.10;10.32;;;;;;;3.67;72.33;100057.25;1731631;82;21180;-47
2021/01/28 05:30:42;;;;;;;13.68;11.28;;;;;;;3.57;72.52;100067.14;1734284;82;21624;-46
2021/01/28 05:33:31;;;;;;;10.98;9.88;;;;;;;3.55;72.55;100071.44;1727923;82;21568;-47
2021/01/28 05:36:21;;;;;;;12.88;10.15;;;;;;;3.53;72.59;100083.45;1735700;82;21392;-48
2021/01/28 05:38:56;;;;;;;10.30;9.13;;;;;;;3.57;72.70;100091.15;1818164;79;22649;-47
2021/01/28 05:41:42;;;;;;;9.85;8.85;;;;;;;3.56;72.59;100105.31;1779511;80;21266;-47
2021/01/28 05:44:24;;;;;;;10.85;8.90;;;;;;;3.53;72.63;100114.31;1750385;80;21195;-49
2021/01/28 05:47:25;;;;;;;10.98;9.68;;;;;;;3.52;72.69;100104.90;1751076;80;21152;-47
2021/01/28 05:50:24;;;;;;;9.98;8.93;;;;;;;3.53;72.67;100122.03;1645877;86;21188;-47
2021/01/28 05:53:14;;;;;;;10.28;9.15;;;;;;;3.53;72.74;100122.03;1661240;86;21254;-47
2021/01/28 05:55:43;;;;;;;11.20;9.35;;;;;;;3.54;72.85;100116.91;1635975;86;21203;-47
2021/01/28 05:58:25;;;;;;;11.50;9.08;;;;;;;3.56;72.86;100117.75;1661172;86;21180;-47
2021/01/28 06:01:23;;;;;;;12.10;9.85;;;;;;;3.57;72.85;100107.00;1635726;86;21845;-50
2021/01/28 06:04:27;;;;;;;11.15;9.18;;;;;;;3.62;72.90;100105.28;1810091;79;22995;-46
2021/01/28 06:07:38;;;;;;;11.60;9.28;;;;;;;3.58;73.00;100094.59;1776829;80;21155;-54
2021/01/28 06:11:04;;;;;;;12.15;10.85;;;;;;;3.66;73.09;100083.83;1804417;77;38970;-48
2021/01/28 06:14:08;;;;;;;12.10;10.18;;;;;;;3.63;73.07;100073.11;1757044;80;21585;-47
2021/01/28 06:17:50;;;;;;;12.05;9.53;;;;;;;3.73;72.96;100063.20;1800369;79;23072;-49
2021/01/28 06:21:00;;;;;;;12.50;9.25;;;;;;;3.68;73.04;100075.67;1788335;80;21612;-48
2021/01/28 06:24:02;;;;;;;10.93;8.70;;;;;;;3.67;73.18;100091.98;1757525;80;21143;-52
2021/01/28 06:26:37;;;;;;;12.10;9.70;;;;;;;3.66;73.17;100095.41;1762095;80;21167;-49
2021/01/28 06:29:46;;;;;;;11.22;9.45;;;;;;;3.65;73.16;100091.11;1792139;80;21148;-49
2021/01/28 06:32:54;;;;;;;10.70;8.95;;;;;;;3.64;73.24;100094.14;1787828;80;21184;-53
2021/01/28 06:36:08;;;;;;;9.73;7.95;;;;;;;3.61;73.34;100095.84;1756960;81;21153;-48
2021/01/28 06:38:49;;;;;;;8.60;7.30;;;;;;;3.53;73.37;100091.16;1628580;88;21196;-48
2021/01/28 06:41:44;;;;;;;9.80;8.53;;;;;;;3.47;73.58;100095.05;1654340;87;21216;-54
2021/01/28 06:44:33;;;;;;;9.33;7.75;;;;;;;3.44;73.85;100095.08;1816572;78;23478;-49
2021/01/28 06:47:19;;;;;;;8.75;7.85;;;;;;;3.34;74.02;100097.25;1697759;84;21175;-49
2021/01/28 06:50:22;;;;;;;8.63;7.42;;;;;;;3.30;74.45;100097.25;1808851;79;23081;-47
2021/01/28 06:53:16;;;;;;;7.92;6.42;;;;;;;3.24;74.63;100110.12;1779229;80;21140;-52
2021/01/28 06:56:09;;;;;;;9.53;8.05;;;;;;;3.27;74.84;100121.70;1766764;79;23071;-50
2021/01/28 06:59:16;;;;;;;7.50;6.80;;;;;;;3.30;74.98;100120.39;1820945;77;28156;-50
2021/01/28 07:02:09;;;;;;;9.58;7.15;;;;;;;3.33;75.06;100123.81;1814556;78;21627;-48
2021/01/28 07:05:32;;;;;;;7.85;7.00;;;;;;;3.49;74.94;100135.76;1819405;77;23045;-48
2021/01/28 07:08:09;;;;;;;8.53;7.40;;;;;;;3.48;74.88;100139.20;1811526;78;21695;-50
2021/01/28 07:10:59;;;;;;;8.18;6.58;;;;;;;3.52;74.94;100144.77;1822075;78;21107;-47
2021/01/28 07:13:33;;;;;;;8.53;7.15;;;;;;;3.55;75.00;100138.31;1812647;78;21120;-47
2021/01/28 07:16:21;;;;;;;7.90;6.85;;;;;;;3.59;75.02;100147.73;1784684;78;21084;-47
2021/01/28 07:18:52;;;;;;;8.08;6.85;;;;;;;3.63;74.89;100148.14;1737979;81;21147;-57
2021/01/28 07:21:46;;;;;;;7.97;7.15;;;;;;;3.67;74.60;100161.45;1754869;81;21179;-53
2021/01/28 07:24:37;;;;;;;9.33;6.33;;;;;;;3.72;74.52;100162.27;1805558;77;22757;-51
2021/01/28 07:27:07;;;;;;;7.35;6.65;;;;;;;3.67;74.46;100161.45;1810258;78;21289;-48
2021/01/28 07:29:50;;;;;;;7.83;6.80;;;;;;;3.68;74.41;100163.14;1818982;78;21249;-48
2021/01/28 07:32:27;;;;;;;7.17;6.42;;;;;;;3.67;74.24;100157.59;1822351;78;21186;-49
2021/01/28 07:35:29;;;;;;;7.70;6.45;;;;;;;3.64;74.05;100160.16;1814325;78;21167;-49
2021/01/28 07:38:29;;;;;;;7.75;6.83;;;;;;;3.59;73.96;100158.02;1802237;78;21144;-48
2021/01/28 07:41:18;;;;;;;7.95;6.72;;;;;;;3.58;74.11;100156.33;1802641;79;23101;-47
2021/01/28 07:44:32;;;;;;;7.62;6.15;;;;;;;3.54;74.31;100159.77;1764681;80;21172;-53
2021/01/28 07:47:03;;;;;;;7.45;6.65;;;;;;;3.58;74.35;100162.33;1695492;84;21616;-51
2021/01/28 07:49:35;;;;;;;9.45;7.28;;;;;;;3.61;74.20;100170.45;1660947;85;21172;-49
2021/01/28 07:52:22;;;;;;;7.58;6.47;;;;;;;3.64;74.15;100165.30;1645625;86;21164;-53
2021/01/28 07:54:52;;;;;;;6.85;6.15;;;;;;;3.68;73.97;100165.72;1657277;86;21212;-51
2021/01/28 07:57:44;;;;;;;6.70;6.00;;;;;;;3.70;74.01;100171.72;1662822;86;21124;-55
2021/01/28 08:00:18;;;;;;;7.03;6.28;;;;;;;3.70;73.94;100167.86;1668322;86;21166;-50
2021/01/28 08:03:05;;;;;;;7.83;7.03;;;;;;;3.76;73.90;100172.98;1807747;79;23095;-50
2021/01/28 08:05:34;;;;;;;7.62;6.58;;;;;;;3.73;73.71;100174.30;1824063;78;21132;-52
2021/01/28 08:08:06;;;;;;;6.95;6.08;;;;;;;3.74;73.62;100172.13;1817181;78;21132;-51
2021/01/28 08:10:38;;;;;;;7.20;6.50;;;;;;;3.75;73.65;100186.27;1818083;78;21623;-52
2021/01/28 08:13:28;;;;;;;7.85;6.30;;;;;;;3.79;73.64;100184.11;1816847;78;21278;-51
2021/01/28 08:16:06;;;;;;;7.30;6.33;;;;;;;3.80;73.54;100183.69;1821529;78;21123;-51
2021/01/28 08:18:39;;;;;;;8.05;7.10;;;;;;;3.81;73.62;100191.84;1803112;78;21564;-52
2021/01/28 08:24:36;;;;;;;9.40;6.70;;;;;;;3.81;73.15;100186.24;1790648;79;22841;-51
2021/01/28 08:27:22;;;;;;;8.55;6.08;;;;;;;3.75;73.29;100200.88;1786303;78;21176;-49
2021/01/28 08:30:27;;;;;;;8.05;7.08;;;;;;;3.70;73.36;100207.73;1690749;84;21124;-52
2021/01/28 08:33:01;;;;;;;7.45;6.72;;;;;;;3.71;73.53;100215.90;1791452;79;23084;-53
2021/01/28 08:35:42;;;;;;;8.45;7.55;;;;;;;3.64;73.47;100210.33;1777488;78;21151;-51
2021/01/28 08:38:18;;;;;;;9.28;7.15;;;;;;;3.63;73.71;100222.75;1770542;80;21638;-54
2021/01/28 08:41:07;;;;;;;8.50;7.20;;;;;;;3.62;73.77;100214.20;1768716;80;21405;-50
2021/01/28 08:43:36;;;;;;;9.85;7.15;;;;;;;3.65;73.76;100227.45;1781322;80;21309;-55
2021/01/28 08:46:14;;;;;;;8.85;7.95;;;;;;;3.67;73.79;100236.06;1779244;80;21131;-53
2021/01/28 08:48:42;;;;;;;8.80;7.90;;;;;;;3.67;73.79;100230.46;1771292;80;21193;-52
